Time;durP1;ratioP1;P1;durP2;ratioP2;P2;SDS_P1;SDS_P2;PMS_P1;PMS_P2;Temp;Humidity;BMP_temperature;BMP_pressure;BME280_temperature;BME280_humidity;BME280_pressure;Samples;Min_cycle;Max_cycle;Signal;HPM_P1;HPM_P2
2021/03/13 00:00:55;;;;;;;9.35;2.08;;;7.30;92.50;;;;;;4988059;28;20408;-83
2021/03/13 00:03:22;;;;;;;12.15;1.65;;;7.30;92.60;;;;;;5003540;28;20052;-83
2021/03/13 00:05:48;;;;;;;13.73;1.65;;;7.30;92.60;;;;;;5018317;28;20055;-84
2021/03/13 00:08:16;;;;;;;12.35;1.95;;;7.40;92.60;;;;;;5030883;28;20045;-84
2021/03/13 00:10:45;;;;;;;12.20;1.83;;;7.40;92.60;;;;;;5032786;28;20735;-84
2021/03/13 00:13:12;;;;;;;15.68;1.70;;;7.50;92.70;;;;;;5031580;28;20056;-84
2021/03/13 00:15:42;;;;;;;14.40;1.75;;;7.50;92.60;;;;;;5048324;28;20500;-84
2021/03/13 00:18:09;;;;;;;19.25;1.65;;;7.50;92.70;;;;;;5035154;28;20043;-84
2021/03/13 00:20:38;;;;;;;16.77;1.50;;;7.50;92.60;;;;;;5036444;28;20060;-84
2021/03/13 00:23:05;;;;;;;11.65;1.98;;;7.50;92.50;;;;;;5035977;28;20614;-84
2021/03/13 00:25:33;;;;;;;12.63;2.03;;;7.50;92.90;;;;;;5053226;28;20040;-84
2021/03/13 00:27:59;;;;;;;14.02;1.92;;;7.50;92.50;;;;;;5040181;28;20047;-84
2021/03/13 00:30:29;;;;;;;17.25;1.98;;;7.50;92.50;;;;;;5041336;28;20033;-84
2021/03/13 00:33:06;;;;;;;13.55;1.38;;;7.50;92.40;;;;;;5039118;28;20037;-84
2021/03/13 00:35:33;;;;;;;13.05;1.80;;;7.50;92.50;;;;;;5051944;28;20045;-83
2021/03/13 00:38:01;;;;;;;12.48;1.92;;;7.50;92.80;;;;;;5015029;28;20411;-84
2021/03/13 00:40:29;;;;;;;10.82;0.93;;;7.50;92.40;;;;;;5002626;28;20047;-84
2021/03/13 00:42:58;;;;;;;15.52;1.45;;;7.50;92.60;;;;;;5019020;28;20044;-85
2021/03/13 00:45:27;;;;;;;9.13;1.63;;;7.40;92.60;;;;;;5030970;28;20037;-84
2021/03/13 00:47:54;;;;;;;10.75;1.52;;;7.50;92.60;;;;;;4980789;28;20056;-84
2021/03/13 00:50:23;;;;;;;15.75;1.08;;;7.40;92.70;;;;;;5030740;28;20052;-85
2021/03/13 00:52:50;;;;;;;9.98;1.35;;;7.40;92.60;;;;;;5017748;28;20514;-84
2021/03/13 00:55:18;;;;;;;10.68;1.20;;;7.40;92.70;;;;;;5014057;28;20491;-85
2021/03/13 00:57:50;;;;;;;7.68;1.02;;;7.40;92.70;;;;;;5000585;28;20048;-85
2021/03/13 01:00:20;;;;;;;9.23;1.23;;;7.40;92.70;;;;;;5031491;28;20051;-84
2021/03/13 01:02:47;;;;;;;14.10;1.48;;;7.40;92.70;;;;;;5028481;28;20037;-85
2021/03/13 01:05:14;;;;;;;12.77;1.38;;;7.40;92.70;;;;;;5050979;28;20056;-85
2021/03/13 01:07:41;;;;;;;9.60;1.20;;;7.40;92.70;;;;;;5047874;28;20040;-84
2021/03/13 01:10:31;;;;;;;13.70;1.45;;;7.40;92.70;;;;;;5047585;28;20029;-84
2021/03/13 01:12:57;;;;;;;15.75;1.50;;;7.40;92.90;;;;;;5020674;28;20056;-83
2021/03/13 01:15:25;;;;;;;14.95;1.83;;;7.40;92.80;;;;;;5019127;28;20033;-82
2021/03/13 01:17:54;;;;;;;14.23;1.60;;;7.40;92.90;;;;;;5015741;28;20051;-82
2021/03/13 01:20:23;;;;;;;7.10;0.73;;;7.40;92.90;;;;;;5016524;28;20036;-82
2021/03/13 01:22:51;;;;;;;7.80;0.90;;;7.40;92.90;;;;;;5035900;28;20036;-82
2021/03/13 01:25:18;;;;;;;10.18;1.17;;;7.50;93.10;;;;;;5002605;28;20044;-82
2021/03/13 01:27:46;;;;;;;8.27;1.30;;;7.40;93.10;;;;;;5018364;28;20025;-82
2021/03/13 01:30:15;;;;;;;10.35;1.20;;;7.40;93.30;;;;;;5038075;28;20044;-82
2021/03/13 01:32:43;;;;;;;11.23;1.58;;;7.40;93.50;;;;;;5031672;28;20397;-84
2021/03/13 01:35:12;;;;;;;9.65;1.35;;;7.40;93.70;;;;;;5016306;28;20048;-83
2021/03/13 01:37:38;;;;;;;6.10;1.35;;;7.30;93.80;;;;;;5048750;28;20656;-82
2021/03/13 01:40:10;;;;;;;7.93;1.25;;;7.30;94.00;;;;;;5006554;28;20040;-82
2021/03/13 01:42:38;;;;;;;12.10;1.55;;;7.20;94.30;;;;;;5014690;28;20043;-81
2021/03/13 01:45:10;;;;;;;13.70;1.67;;;7.20;94.50;;;;;;5037488;28;20036;-81
2021/03/13 01:47:38;;;;;;;13.68;1.70;;;7.10;95.10;;;;;;5032603;28;20040;-81
2021/03/13 01:50:10;;;;;;;8.23;1.13;;;7.10;95.00;;;;;;5035625;28;20476;-80
2021/03/13 01:52:42;;;;;;;;;;;7.00;95.30;;;;;;5049952;28;20041;-80
2021/03/13 01:55:11;;;;;;;14.38;1.60;;;7.00;95.30;;;;;;5036001;28;19927;-80
2021/03/13 01:57:39;;;;;;;11.15;1.35;;;7.00;95.50;;;;;;5032655;28;20040;-80
2021/03/13 02:00:13;;;;;;;11.38;1.65;;;7.00;95.60;;;;;;5031183;28;20032;-80
2021/03/13 02:02:42;;;;;;;9.68;1.92;;;6.90;95.80;;;;;;5047529;28;20479;-80
2021/03/13 02:05:24;;;;;;;13.13;2.25;;;6.90;96.00;;;;;;5017336;28;20041;-80
2021/03/13 02:07:56;;;;;;;12.73;2.17;;;6.90;96.10;;;;;;5029360;28;20530;-80
2021/03/13 02:10:48;;;;;;;8.40;1.70;;;6.90;96.20;;;;;;5050059;28;20028;-80
2021/03/13 02:13:25;;;;;;;11.93;1.92;;;6.80;96.40;;;;;;5027873;28;20416;-80
2021/03/13 02:15:58;;;;;;;8.93;2.15;;;6.80;96.50;;;;;;5014865;28;20388;-80
2021/03/13 02:18:48;;;;;;;12.05;1.85;;;6.80;96.60;;;;;;5045878;28;20043;-80
2021/03/13 02:21:18;;;;;;;9.15;1.70;;;6.70;96.70;;;;;;5029846;28;20052;-80
2021/03/13 02:24:17;;;;;;;8.13;1.30;;;6.70;96.90;;;;;;5047633;28;20146;-80
2021/03/13 02:27:16;;;;;;;9.52;1.60;;;6.70;97.00;;;;;;5048220;28;20162;-80
2021/03/13 02:30:00;;;;;;;12.38;1.65;;;6.70;97.00;;;;;;5016131;28;20036;-79
2021/03/13 02:32:56;;;;;;;8.18;2.42;;;6.70;97.30;;;;;;5043283;28;20530;-80
2021/03/13 02:35:40;;;;;;;5.65;1.85;;;6.60;97.20;;;;;;5048080;28;20414;-80
2021/03/13 02:38:12;;;;;;;11.63;2.83;;;6.60;97.30;;;;;;5009892;28;20391;-81
2021/03/13 02:40:41;;;;;;;9.50;2.42;;;6.60;97.40;;;;;;5044056;28;20149;-81
2021/03/13 02:43:10;;;;;;;12.05;2.17;;;6.60;97.50;;;;;;5028407;28;20049;-81
2021/03/13 02:45:44;;;;;;;7.67;2.90;;;6.60;97.50;;;;;;5030751;28;20040;-80
2021/03/13 02:48:12;;;;;;;9.93;2.60;;;6.60;97.60;;;;;;5045355;28;20029;-80
2021/03/13 02:50:40;;;;;;;10.85;2.55;;;6.60;97.70;;;;;;5030330;28;20506;-81
2021/03/13 02:53:30;;;;;;;11.38;2.85;;;6.60;97.80;;;;;;5025240;28;20052;-81
2021/03/13 02:56:02;;;;;;;9.48;2.75;;;6.60;97.80;;;;;;5010491;28;20044;-81
2021/03/13 02:58:32;;;;;;;8.23;2.95;;;6.60;97.90;;;;;;5029637;28;20032;-81
2021/03/13 03:01:00;;;;;;;12.95;3.15;;;6.60;98.00;;;;;;5037144;28;20044;-82
2021/03/13 03:03:27;;;;;;;8.32;3.38;;;6.60;98.00;;;;;;5003683;28;20049;-82
2021/03/13 03:06:15;;;;;;;9.40;3.40;;;6.60;98.30;;;;;;5006450;28;20044;-81
2021/03/13 03:08:47;;;;;;;8.98;2.50;;;6.60;98.10;;;;;;5018309;28;20045;-82
2021/03/13 03:11:22;;;;;;;6.35;2.38;;;6.60;98.40;;;;;;5020430;28;20106;-82
2021/03/13 03:13:53;;;;;;;8.75;2.83;;;6.60;98.20;;;;;;5014808;28;20124;-82
2021/03/13 03:16:23;;;;;;;9.73;3.35;;;6.60;98.30;;;;;;5031711;28;20632;-83
2021/03/13 03:18:53;;;;;;;9.48;4.07;;;6.60;98.30;;;;;;5033287;28;20384;-83
2021/03/13 03:21:22;;;;;;;8.48;3.05;;;6.60;98.40;;;;;;5036219;28;20033;-83
2021/03/13 03:23:49;;;;;;;9.45;3.40;;;6.60;98.40;;;;;;5016943;28;20480;-82
2021/03/13 03:26:18;;;;;;;9.45;2.90;;;6.60;98.50;;;;;;5015024;28;20056;-83
2021/03/13 03:28:46;;;;;;;9.13;3.05;;;6.60;98.50;;;;;;5050925;28;20072;-82
2021/03/13 03:31:17;;;;;;;10.98;3.05;;;6.60;98.60;;;;;;5034234;28;20515;-82
2021/03/13 03:33:46;;;;;;;6.85;3.08;;;6.60;98.60;;;;;;5031355;28;20041;-82
2021/03/13 03:36:15;;;;;;;10.77;3.30;;;6.60;98.60;;;;;;5016233;28;20040;-82
2021/03/13 03:38:43;;;;;;;8.13;2.53;;;6.60;98.60;;;;;;5050411;28;20048;-82
2021/03/13 03:41:16;;;;;;;;;;;6.60;98.70;;;;;;5002685;28;20064;-82
2021/03/13 03:43:48;;;;;;;12.73;3.58;;;6.70;98.80;;;;;;5047138;28;19931;-82
2021/03/13 03:46:22;;;;;;;8.30;2.83;;;6.70;98.80;;;;;;5014674;28;20044;-82
2021/03/13 03:48:50;;;;;;;6.90;2.83;;;6.70;98.90;;;;;;5004223;28;20048;-82
2021/03/13 03:51:26;;;;;;;6.95;2.40;;;6.70;98.90;;;;;;5048347;28;20565;-82
2021/03/13 03:54:04;;;;;;;8.82;2.03;;;6.70;98.90;;;;;;5021554;28;20032;-82
2021/03/13 03:56:31;;;;;;;10.18;2.63;;;6.70;99.20;;;;;;5037387;28;20032;-83
2021/03/13 03:58:58;;;;;;;10.05;2.95;;;6.70;99.00;;;;;;5018127;28;20037;-82
2021/03/13 04:01:26;;;;;;;8.75;2.70;;;6.70;99.00;;;;;;4987415;28;20044;-83
2021/03/13 04:03:56;;;;;;;9.95;2.25;;;6.70;99.00;;;;;;5018727;28;20045;-83
2021/03/13 04:06:23;;;;;;;6.68;1.58;;;6.70;99.00;;;;;;5052432;28;20049;-83
2021/03/13 04:08:54;;;;;;;6.90;2.42;;;6.70;99.10;;;;;;5018268;28;20047;-83
2021/03/13 04:11:22;;;;;;;10.60;2.55;;;6.80;99.10;;;;;;5053298;28;20487;-83
2021/03/13 04:13:55;;;;;;;7.03;1.95;;;6.80;99.10;;;;;;5017538;28;20064;-83
2021/03/13 04:16:23;;;;;;;10.82;2.05;;;6.80;99.10;;;;;;5031622;28;20024;-83
2021/03/13 04:18:49;;;;;;;9.53;1.90;;;6.80;99.40;;;;;;5032598;28;20408;-83
2021/03/13 04:21:17;;;;;;;9.48;3.00;;;6.80;99.20;;;;;;5050863;28;20040;-83
2021/03/13 04:23:47;;;;;;;9.13;2.47;;;6.80;99.20;;;;;;5033881;28;20412;-83
2021/03/13 04:26:17;;;;;;;8.65;2.70;;;6.80;99.30;;;;;;5001607;28;20037;-83
2021/03/13 04:28:45;;;;;;;6.32;2.25;;;6.80;99.30;;;;;;4984948;28;20049;-83
2021/03/13 04:31:13;;;;;;;10.20;2.70;;;6.80;99.30;;;;;;5017143;28;20403;-83
2021/03/13 04:33:41;;;;;;;12.40;3.30;;;6.80;99.40;;;;;;5034978;28;20416;-83
2021/03/13 04:36:08;;;;;;;8.40;2.70;;;6.80;99.40;;;;;;5032653;28;20029;-83
2021/03/13 04:38:37;;;;;;;9.63;2.90;;;6.80;99.40;;;;;;5048711;28;20500;-84
2021/03/13 04:41:05;;;;;;;7.18;2.50;;;6.90;99.50;;;;;;5031028;28;20060;-83
2021/03/13 04:43:32;;;;;;;8.23;2.58;;;6.80;99.50;;;;;;5016628;28;20037;-83
2021/03/13 04:46:00;;;;;;;11.05;2.60;;;6.80;99.50;;;;;;5053608;28;20060;-83
2021/03/13 04:48:30;;;;;;;8.23;2.93;;;6.90;99.50;;;;;;5038492;28;20052;-83
2021/03/13 04:50:59;;;;;;;13.68;2.85;;;6.90;99.50;;;;;;5037463;28;20060;-83
2021/03/13 04:53:26;;;;;;;9.07;2.50;;;6.90;99.50;;;;;;5013072;28;20044;-83
2021/03/13 04:55:52;;;;;;;8.60;2.85;;;6.90;99.50;;;;;;5021450;28;20037;-84
2021/03/13 04:58:19;;;;;;;11.18;2.95;;;6.90;99.50;;;;;;5018844;28;20041;-84
2021/03/13 05:00:46;;;;;;;9.57;2.83;;;6.90;99.60;;;;;;5033588;28;20040;-84
2021/03/13 05:03:14;;;;;;;7.40;2.35;;;7.00;99.60;;;;;;4992253;28;20037;-85
2021/03/13 05:05:41;;;;;;;8.82;2.83;;;6.90;99.60;;;;;;5021702;28;20037;-84
2021/03/13 05:08:07;;;;;;;6.27;2.20;;;7.00;99.60;;;;;;5052675;28;20037;-84
2021/03/13 05:10:34;;;;;;;9.23;2.53;;;7.00;99.60;;;;;;5038603;28;20404;-85
2021/03/13 05:13:01;;;;;;;6.70;2.33;;;7.00;99.60;;;;;;5030612;28;20078;-84
2021/03/13 05:15:27;;;;;;;8.73;2.30;;;7.00;99.60;;;;;;5019701;28;20043;-84
2021/03/13 05:17:54;;;;;;;6.78;2.22;;;7.10;99.60;;;;;;5033306;28;20037;-83
2021/03/13 05:20:21;;;;;;;13.40;2.60;;;7.00;99.60;;;;;;5016636;28;20043;-83
2021/03/13 05:22:48;;;;;;;10.45;2.08;;;7.10;99.70;;;;;;5016221;28;20036;-83
2021/03/13 05:25:15;;;;;;;6.38;2.08;;;7.10;99.70;;;;;;5017125;28;20391;-83
2021/03/13 05:27:42;;;;;;;7.95;2.38;;;7.10;99.70;;;;;;5019296;28;20052;-83
2021/03/13 05:30:10;;;;;;;10.80;2.30;;;7.10;99.70;;;;;;5017773;28;20119;-83
2021/03/13 05:32:37;;;;;;;7.47;2.67;;;7.10;99.70;;;;;;5020946;28;20167;-84
2021/03/13 05:35:09;;;;;;;6.60;1.80;;;7.10;99.80;;;;;;5016958;28;20070;-83
2021/03/13 05:37:36;;;;;;;8.20;1.90;;;7.10;99.80;;;;;;5032869;28;20544;-82
2021/03/13 05:40:05;;;;;;;10.37;2.13;;;7.10;99.80;;;;;;5054440;28;20033;-82
2021/03/13 05:42:32;;;;;;;10.63;2.30;;;7.10;99.80;;;;;;5049336;28;20027;-81
2021/03/13 05:44:59;;;;;;;8.95;2.22;;;7.10;99.90;;;;;;5030771;28;20052;-82
2021/03/13 05:47:26;;;;;;;7.30;1.90;;;7.20;99.90;;;;;;5051282;28;20051;-83
2021/03/13 05:50:07;;;;;;;10.10;2.25;;;7.10;99.90;;;;;;5007090;28;20447;-83
2021/03/13 05:52:35;;;;;;;10.43;2.13;;;7.20;99.90;;;;;;5036883;28;20037;-83
2021/03/13 05:55:04;;;;;;;6.28;1.88;;;7.10;99.90;;;;;;5007745;28;20048;-83
2021/03/13 05:57:31;;;;;;;6.43;1.98;;;7.20;99.90;;;;;;5047599;28;20056;-83
2021/03/13 05:59:58;;;;;;;4.70;1.45;;;7.20;99.90;;;;;;5030403;28;20484;-83
2021/03/13 06:02:24;;;;;;;7.55;1.80;;;7.20;99.90;;;;;;5015165;28;20029;-84
2021/03/13 06:04:52;;;;;;;5.35;1.55;;;7.20;99.90;;;;;;5013836;28;20056;-83
2021/03/13 06:07:26;;;;;;;7.65;2.05;;;7.20;99.90;;;;;;5012934;28;20418;-82
2021/03/13 06:09:54;;;;;;;6.25;1.35;;;7.20;99.90;;;;;;5029516;28;20528;-82
2021/03/13 06:12:21;;;;;;;11.35;1.85;;;7.20;99.90;;;;;;5011583;28;20047;-83
2021/03/13 06:14:52;;;;;;;9.07;1.60;;;7.30;99.90;;;;;;5012585;28;20052;-83
2021/03/13 06:17:22;;;;;;;8.18;1.50;;;7.30;99.90;;;;;;5039613;28;20049;-83
2021/03/13 06:19:54;;;;;;;6.05;1.27;;;7.30;99.90;;;;;;5011609;28;20401;-83
2021/03/13 06:22:41;;;;;;;9.83;1.50;;;7.30;99.90;;;;;;5039216;28;20047;-83
2021/03/13 06:25:14;;;;;;;3.92;0.50;;;7.30;99.90;;;;;;5024198;28;20810;-83
2021/03/13 06:27:43;;;;;;;3.78;0.60;;;7.30;99.90;;;;;;5038441;28;20045;-83
2021/03/13 06:30:13;;;;;;;3.85;0.30;;;7.20;99.90;;;;;;5033119;28;20048;-84
2021/03/13 06:32:40;;;;;;;3.75;0.40;;;7.00;99.70;;;;;;5047065;28;20463;-84
2021/03/13 06:35:24;;;;;;;2.45;0.20;;;6.80;99.50;;;;;;5024752;28;20630;-80
2021/03/13 06:37:57;;;;;;;4.18;0.20;;;6.60;99.40;;;;;;5029400;28;20594;-91
2021/03/13 06:40:34;;;;;;;1.48;0.20;;;6.60;99.60;;;;;;5015504;28;20036;-86
2021/03/13 06:43:18;;;;;;;1.08;0.20;;;6.50;99.60;;;;;;5037069;28;20041;-88
2021/03/13 06:46:04;;;;;;;2.53;0.57;;;6.40;99.60;;;;;;5058033;28;20044;-85
2021/03/13 06:48:41;;;;;;;3.70;0.40;;;6.40;99.80;;;;;;5051039;28;20045;-85
2021/03/13 06:51:20;;;;;;;3.20;0.50;;;6.40;99.90;;;;;;5017277;28;20044;-80
2021/03/13 06:54:04;;;;;;;4.32;0.57;;;6.40;99.90;;;;;;5047460;28;20063;-85
2021/03/13 06:56:32;;;;;;;3.38;0.60;;;6.50;99.90;;;;;;5033181;28;20048;-85
2021/03/13 06:59:01;;;;;;;5.78;0.60;;;6.60;99.90;;;;;;5030838;28;20043;-85
2021/03/13 07:01:30;;;;;;;3.00;0.40;;;6.60;99.90;;;;;;5043923;28;20037;-85
2021/03/13 07:03:58;;;;;;;3.22;0.50;;;6.60;99.90;;;;;;5048002;28;20033;-84
2021/03/13 07:06:25;;;;;;;4.20;0.50;;;6.60;99.90;;;;;;5001248;28;20723;-85
2021/03/13 07:08:54;;;;;;;4.07;0.40;;;6.60;99.70;;;;;;5011551;28;20037;-85
2021/03/13 07:11:24;;;;;;;10.25;0.60;;;6.60;99.60;;;;;;5024420;28;20048;-85
2021/03/13 07:13:54;;;;;;;3.20;0.60;;;6.60;99.30;;;;;;5028686;28;20065;-85
2021/03/13 07:16:35;;;;;;;7.05;0.50;;;6.60;99.20;;;;;;5043296;28;20472;-84
2021/03/13 07:19:10;;;;;;;7.13;0.63;;;6.50;99.00;;;;;;4999018;28;20484;-85
2021/03/13 07:21:38;;;;;;;6.00;0.63;;;6.50;98.70;;;;;;5017138;28;20033;-85
2021/03/13 07:24:13;;;;;;;5.32;0.60;;;6.40;98.40;;;;;;5013496;28;20041;-82
2021/03/13 07:26:43;;;;;;;6.30;0.50;;;6.40;98.30;;;;;;5012147;28;20047;-83
2021/03/13 07:29:17;;;;;;;9.25;0.93;;;6.50;98.30;;;;;;5027865;28;20051;-82
2021/03/13 07:31:49;;;;;;;9.05;1.00;;;6.50;98.20;;;;;;5027859;28;20041;-82
2021/03/13 07:34:28;;;;;;;9.18;1.00;;;6.40;98.10;;;;;;5046635;28;20045;-82
2021/03/13 07:36:58;;;;;;;9.20;0.50;;;6.40;98.10;;;;;;5009120;28;20474;-83
2021/03/13 07:39:46;;;;;;;6.75;0.60;;;6.50;98.30;;;;;;5051529;28;20041;-85
2021/03/13 07:42:16;;;;;;;8.13;0.80;;;6.50;97.90;;;;;;5029040;28;20041;-85
2021/03/13 07:44:43;;;;;;;7.55;0.77;;;6.50;97.80;;;;;;5045764;28;20045;-82
2021/03/13 07:47:12;;;;;;;9.93;0.93;;;6.60;97.80;;;;;;5027437;28;20516;-82
2021/03/13 07:49:42;;;;;;;12.25;1.23;;;6.70;97.00;;;;;;5015394;28;20037;-83
2021/03/13 07:52:11;;;;;;;8.63;1.02;;;6.70;96.50;;;;;;5014785;28;20032;-82
2021/03/13 07:54:41;;;;;;;9.05;1.00;;;6.80;96.50;;;;;;5018031;28;20045;-82
2021/03/13 07:57:10;;;;;;;11.95;0.90;;;6.80;96.10;;;;;;5026204;28;20352;-82
2021/03/13 07:59:40;;;;;;;12.10;0.95;;;6.90;95.80;;;;;;5011670;28;20037;-83
2021/03/13 08:02:07;;;;;;;10.95;1.23;;;7.00;95.60;;;;;;5047429;28;20492;-82
2021/03/13 08:04:43;;;;;;;17.25;2.42;;;7.00;95.50;;;;;;5029409;28;20028;-84
2021/03/13 08:07:10;;;;;;;9.63;0.93;;;7.20;95.40;;;;;;5042621;28;20045;-85
2021/03/13 08:09:44;;;;;;;8.82;0.85;;;7.30;95.30;;;;;;5029117;28;20041;-86
2021/03/13 08:12:11;;;;;;;14.20;0.95;;;7.50;95.20;;;;;;5044264;28;20048;-86
2021/03/13 08:14:38;;;;;;;13.27;1.08;;;7.70;94.80;;;;;;5017626;28;20025;-83
2021/03/13 08:17:14;;;;;;;16.17;1.42;;;7.80;94.50;;;;;;5010416;28;20044;-82
2021/03/13 08:19:42;;;;;;;11.85;1.98;;;7.80;93.90;;;;;;5011523;28;20041;-85
2021/03/13 08:22:15;;;;;;;15.13;1.40;;;7.90;93.90;;;;;;5013416;28;20029;-85
2021/03/13 08:24:42;;;;;;;12.13;1.55;;;8.00;93.80;;;;;;5028431;28;20052;-88
2021/03/13 08:27:10;;;;;;;14.20;1.42;;;8.20;93.80;;;;;;5008750;28;20033;-87
2021/03/13 08:30:16;;;;;;;18.77;2.65;;;8.50;93.00;;;;;;5027458;28;20416;-87
2021/03/13 08:33:06;;;;;;;16.58;2.10;;;8.70;92.00;;;;;;5028739;28;20040;-86
2021/03/13 08:35:40;;;;;;;18.83;2.33;;;8.70;91.70;;;;;;5017700;28;20044;-85
2021/03/13 08:38:07;;;;;;;13.68;1.70;;;8.60;91.50;;;;;;5025233;28;20040;-85
2021/03/13 08:40:34;;;;;;;14.18;1.83;;;8.50;91.50;;;;;;5019848;28;20041;-84
2021/03/13 08:43:38;;;;;;;15.15;1.30;;;8.30;91.50;;;;;;5030754;28;20044;-83
2021/03/13 08:46:22;;;;;;;11.60;1.65;;;8.10;92.10;;;;;;5031343;28;20045;-82
2021/03/13 08:48:59;;;;;;;13.88;1.38;;;7.90;92.80;;;;;;5034929;28;20049;-83
2021/03/13 08:51:26;;;;;;;12.27;1.35;;;7.80;93.60;;;;;;5014868;28;20045;-83
2021/03/13 08:53:53;;;;;;;12.35;1.83;;;7.70;94.10;;;;;;5013462;28;20384;-82
2021/03/13 08:56:40;;;;;;;15.27;1.30;;;7.70;94.50;;;;;;5012469;28;20040;-82
2021/03/13 08:59:15;;;;;;;13.38;1.52;;;7.70;94.60;;;;;;5033746;28;20041;-83
2021/03/13 09:01:43;;;;;;;13.88;1.80;;;7.70;94.50;;;;;;5048574;28;20892;-81
2021/03/13 09:04:11;;;;;;;11.40;1.35;;;7.80;94.60;;;;;;5048650;28;20039;-81
2021/03/13 09:06:41;;;;;;;17.33;2.70;;;7.70;94.50;;;;;;5048193;28;20037;-81
2021/03/13 09:09:15;;;;;;;18.58;2.03;;;7.70;94.50;;;;;;5013691;28;20052;-82
2021/03/13 09:11:43;;;;;;;13.27;2.03;;;7.60;94.50;;;;;;5031871;28;20048;-82
2021/03/13 09:14:12;;;;;;;23.00;1.85;;;7.60;94.60;;;;;;5048559;28;20151;-82
2021/03/13 09:16:42;;;;;;;15.32;1.95;;;7.50;94.60;;;;;;5048028;28;20053;-83
2021/03/13 09:19:14;;;;;;;18.95;1.52;;;7.60;94.70;;;;;;5013034;28;20039;-85
2021/03/13 09:21:52;;;;;;;22.65;2.00;;;7.50;94.50;;;;;;5025593;28;20033;-83
2021/03/13 09:24:27;;;;;;;11.88;1.45;;;7.60;94.60;;;;;;5012641;28;20503;-84
2021/03/13 09:26:59;;;;;;;17.58;1.80;;;7.70;94.30;;;;;;5012167;28;20053;-84
2021/03/13 09:29:36;;;;;;;16.92;1.60;;;7.70;93.60;;;;;;5019269;28;20044;-79
2021/03/13 09:32:13;;;;;;;15.90;2.13;;;7.80;93.20;;;;;;5023636;28;20578;-89
2021/03/13 09:34:43;;;;;;;25.38;3.05;;;7.80;93.20;;;;;;5049807;28;20041;-86
2021/03/13 09:37:23;;;;;;;20.55;2.50;;;7.80;93.10;;;;;;5013897;28;20594;-83
2021/03/13 09:39:52;;;;;;;21.25;2.85;;;7.90;93.00;;;;;;5029377;28;20049;-84
2021/03/13 09:42:19;;;;;;;27.42;3.25;;;7.90;93.00;;;;;;5046869;28;20041;-83
2021/03/13 09:44:49;;;;;;;25.08;2.63;;;7.80;92.90;;;;;;5015320;28;20032;-84
2021/03/13 09:47:22;;;;;;;26.88;2.55;;;7.80;93.40;;;;;;5010404;28;20037;-84
2021/03/13 09:49:54;;;;;;;18.50;1.92;;;7.80;93.80;;;;;;5029232;28;20044;-82
2021/03/13 09:52:34;;;;;;;25.10;2.47;;;7.70;93.60;;;;;;5028312;28;20921;-84
2021/03/13 09:55:03;;;;;;;26.50;2.92;;;7.70;94.10;;;;;;4997359;28;20511;-84
2021/03/13 09:57:29;;;;;;;25.85;2.80;;;7.80;94.20;;;;;;5011634;28;20044;-84
2021/03/13 09:59:57;;;;;;;19.15;2.60;;;7.90;94.20;;;;;;5046431;28;20053;-82
2021/03/13 10:02:24;;;;;;;16.88;2.15;;;8.00;94.10;;;;;;5016391;28;20036;-83
2021/03/13 10:04:52;;;;;;;20.23;2.35;;;7.90;93.90;;;;;;5020273;28;20505;-83
2021/03/13 10:07:20;;;;;;;16.58;2.53;;;7.90;93.50;;;;;;5027202;28;20033;-84
2021/03/13 10:10:05;;;;;;;21.77;2.58;;;7.80;93.60;;;;;;5001178;28;20037;-84
2021/03/13 10:12:35;;;;;;;13.00;1.42;;;7.70;93.50;;;;;;5016892;28;20041;-83
2021/03/13 10:15:16;;;;;;;17.27;1.52;;;7.60;93.30;;;;;;5013359;28;20044;-84
2021/03/13 10:17:53;;;;;;;13.38;1.58;;;7.40;93.60;;;;;;5015572;28;20029;-83
2021/03/13 10:20:22;;;;;;;16.48;1.92;;;7.00;93.90;;;;;;5047712;28;20939;-85
2021/03/13 10:22:51;;;;;;;16.15;2.08;;;6.70;94.50;;;;;;5030756;28;20059;-82
2021/03/13 10:25:18;;;;;;;21.80;2.63;;;6.40;95.20;;;;;;4999963;28;20043;-82
2021/03/13 10:27:45;;;;;;;22.80;2.28;;;6.20;95.60;;;;;;5031171;28;20057;-81
2021/03/13 10:30:12;;;;;;;29.25;3.47;;;6.20;96.20;;;;;;5022466;28;20274;-82
2021/03/13 10:32:40;;;;;;;23.13;2.65;;;6.30;96.70;;;;;;5017848;28;20034;-82
2021/03/13 10:35:20;;;;;;;20.42;2.10;;;6.50;97.10;;;;;;5020666;28;20033;-83
2021/03/13 10:37:58;;;;;;;20.50;2.95;;;6.60;97.00;;;;;;5049430;28;20028;-83
2021/03/13 10:40:32;;;;;;;19.73;3.00;;;6.70;97.10;;;;;;5037096;28;20397;-82
2021/03/13 10:43:13;;;;;;;25.02;3.15;;;6.70;97.00;;;;;;5044681;28;20388;-82
2021/03/13 10:45:48;;;;;;;28.90;3.10;;;6.80;97.10;;;;;;5050563;28;20394;-90
2021/03/13 10:48:14;;;;;;;38.17;4.18;;;6.80;97.20;;;;;;5016312;28;20033;-85
2021/03/13 10:50:42;;;;;;;20.13;2.63;;;6.80;97.10;;;;;;5015532;28;20048;-86
2021/03/13 10:53:30;;;;;;;30.42;3.90;;;6.70;97.00;;;;;;5012195;28;20033;-84
2021/03/13 10:56:05;;;;;;;26.17;2.67;;;7.00;98.10;;;;;;5029370;28;21159;-85
2021/03/13 10:58:33;;;;;;;22.45;2.67;;;7.30;97.80;;;;;;5011657;28;20041;-84
2021/03/13 11:01:02;;;;;;;20.50;2.95;;;7.80;97.80;;;;;;5043765;28;20399;-89
2021/03/13 11:03:29;;;;;;;23.77;3.15;;;8.30;97.40;;;;;;5010588;28;20045;-90
2021/03/13 11:05:55;;;;;;;25.58;3.40;;;8.70;96.70;;;;;;5015427;28;20849;-89
2021/03/13 11:08:23;;;;;;;23.83;3.28;;;8.80;95.40;;;;;;5031483;28;20055;-87
2021/03/13 11:10:51;;;;;;;19.52;3.00;;;9.00;94.90;;;;;;5029883;28;20500;-85
2021/03/13 11:13:19;;;;;;;32.35;3.40;;;9.00;93.60;;;;;;5028572;28;20052;-88
2021/03/13 11:15:46;;;;;;;25.42;3.45;;;9.00;93.80;;;;;;5012907;28;20049;-86
2021/03/13 11:18:13;;;;;;;25.73;2.70;;;9.10;93.10;;;;;;5011193;28;20041;-86
2021/03/13 11:20:40;;;;;;;22.88;3.20;;;9.10;92.80;;;;;;5028740;28;20791;-85
2021/03/13 11:23:07;;;;;;;21.55;2.67;;;9.40;93.30;;;;;;4996098;28;20044;-87
2021/03/13 11:25:35;;;;;;;23.17;2.95;;;9.70;92.30;;;;;;5031560;28;20049;-88
2021/03/13 11:28:05;;;;;;;21.63;3.70;;;9.80;91.40;;;;;;5011948;28;20041;-85
2021/03/13 11:30:32;;;;;;;19.55;2.65;;;9.90;91.20;;;;;;5028031;28;20048;-84
2021/03/13 11:32:59;;;;;;;19.85;2.13;;;9.80;90.60;;;;;;5012072;28;20056;-85
2021/03/13 11:35:25;;;;;;;21.60;2.53;;;9.80;89.30;;;;;;4980671;28;20044;-87
2021/03/13 11:37:55;;;;;;;17.65;2.08;;;9.70;90.00;;;;;;5030765;28;20041;-86
2021/03/13 11:40:23;;;;;;;17.42;1.80;;;9.70;88.70;;;;;;5000032;28;20049;-88
2021/03/13 11:42:52;;;;;;;23.90;2.15;;;9.60;86.80;;;;;;5029575;28;20048;-89
2021/03/13 11:45:19;;;;;;;15.80;1.73;;;9.40;88.40;;;;;;5031779;28;20040;-85
2021/03/13 11:47:46;;;;;;;15.73;2.47;;;9.70;90.10;;;;;;5013948;28;20041;-83
2021/03/13 11:50:15;;;;;;;11.82;1.63;;;10.40;90.40;;;;;;5056218;28;20052;-83
2021/03/13 11:52:41;;;;;;;21.95;2.50;;;11.30;86.40;;;;;;4999591;28;20033;-83
2021/03/13 11:55:10;;;;;;;14.52;1.75;;;11.70;81.50;;;;;;5034158;28;20029;-85
2021/03/13 11:57:38;;;;;;;10.95;1.40;;;11.70;80.40;;;;;;5011035;28;20044;-85
2021/03/13 12:00:26;;;;;;;22.55;2.88;;;12.10;80.90;;;;;;5026005;28;20033;-87
2021/03/13 12:02:52;;;;;;;16.25;2.08;;;12.80;79.90;;;;;;5012798;28;20048;-85
2021/03/13 12:05:22;;;;;;;10.73;1.80;;;13.20;77.50;;;;;;4996299;28;20040;-86
2021/03/13 12:07:48;;;;;;;9.65;1.27;;;13.50;77.00;;;;;;5011507;28;20388;-84
2021/03/13 12:10:15;;;;;;;10.02;1.65;;;14.00;75.60;;;;;;5028369;28;20602;-87
2021/03/13 12:12:42;;;;;;;13.75;1.73;;;14.40;72.70;;;;;;5017546;28;20048;-84
2021/03/13 12:15:09;;;;;;;15.85;2.38;;;14.80;73.40;;;;;;5056999;28;20033;-86
2021/03/13 12:17:54;;;;;;;15.18;2.28;;;14.60;69.10;;;;;;5040296;28;20057;-88
2021/03/13 12:20:22;;;;;;;15.30;2.58;;;13.80;70.10;;;;;;5023328;28;20030;-87
2021/03/13 12:22:49;;;;;;;17.98;2.55;;;12.90;72.00;;;;;;5059104;28;20057;-85
2021/03/13 12:25:16;;;;;;;12.98;1.90;;;12.10;73.50;;;;;;5055913;28;20585;-84
2021/03/13 12:27:42;;;;;;;11.77;1.45;;;11.40;76.80;;;;;;5055418;28;20060;-85
2021/03/13 12:30:10;;;;;;;9.85;0.70;;;10.70;79.10;;;;;;5021777;28;20037;-84
2021/03/13 12:32:41;;;;;;;7.53;0.90;;;10.00;81.20;;;;;;5010853;28;20061;-87
2021/03/13 12:35:09;;;;;;;7.93;0.98;;;9.50;83.50;;;;;;5048722;28;20037;-84
2021/03/13 12:37:37;;;;;;;7.40;1.02;;;9.30;86.40;;;;;;5033940;28;20166;-80
2021/03/13 12:40:08;;;;;;;9.55;0.90;;;9.50;85.60;;;;;;5050979;28;20045;-86
2021/03/13 12:42:36;;;;;;;10.25;0.90;;;9.40;85.10;;;;;;5015073;28;20064;-87
2021/03/13 12:45:05;;;;;;;7.20;1.05;;;9.80;86.80;;;;;;5052898;28;20049;-82
2021/03/13 12:47:32;;;;;;;11.13;1.30;;;10.90;85.50;;;;;;5018267;28;20040;-87
2021/03/13 12:50:01;;;;;;;8.52;1.25;;;12.00;81.20;;;;;;5015425;28;20025;-87
2021/03/13 12:52:31;;;;;;;11.10;1.13;;;12.90;77.40;;;;;;5025421;28;20040;-78
2021/03/13 12:54:58;;;;;;;7.13;0.95;;;13.00;72.30;;;;;;5051305;28;20040;-78
2021/03/13 12:57:24;;;;;;;10.40;1.10;;;12.50;73.80;;;;;;4986810;28;20052;-87
2021/03/13 12:59:51;;;;;;;9.63;0.82;;;11.90;75.20;;;;;;5015362;28;20796;-86
2021/03/13 13:02:18;;;;;;;10.15;1.10;;;11.40;76.30;;;;;;4996931;28;20036;-87
2021/03/13 13:04:44;;;;;;;10.57;1.10;;;10.90;78.20;;;;;;5032899;28;20506;-86
2021/03/13 13:07:11;;;;;;;8.93;1.08;;;10.50;78.80;;;;;;5033195;28;20052;-87
2021/03/13 13:09:38;;;;;;;10.90;1.60;;;10.20;78.80;;;;;;5051718;28;20052;-87